Dermott, Arkansas
Current Conditions -  °F | °C
As of 10:53 PM on Monday 22 Dec 2014 (Local Time) from KLLQ Reporting Station
Clear Clear  
Wind Chill: 60°   Ceiling: Unl
Heat Index: 60°   Visibility: 8mi
Dew Point: 57°   Wind: 3mph
Humidity: 90%   Direction: 200°SSW
Pressure: 29.64"   Gusts: NA
Location:  33.53°N, 91.44°W
Report Text: KLLQ 230453Z AUTO 20003KT 8SM CLR 16/14 A2964 RMK AO2 SLP034 T01560139
Loading
Personal Weather Stations






























Interactive Weather Map New forecast layout! Learn more

10-Day Weather Forecast

Advertisements
Track Severe Weather on mobile